sensor_id;sensor_type;location;lat;lon;timestamp;P1;durP1;ratioP1;P2;durP2;ratioP2
12762;SDS011;6445;52.490;13.378;2022-12-19T00:00:19;35.28;;;17.23;;
12762;SDS011;6445;52.490;13.378;2022-12-19T00:02:44;33.75;;;16.98;;
12762;SDS011;6445;52.490;13.378;2022-12-19T00:05:10;37.42;;;17.13;;
12762;SDS011;6445;52.490;13.378;2022-12-19T00:07:35;37.58;;;17.60;;
12762;SDS011;6445;52.490;13.378;2022-12-19T00:10:00;32.08;;;16.55;;
12762;SDS011;6445;52.490;13.378;2022-12-19T00:12:25;33.10;;;16.52;;
12762;SDS011;6445;52.490;13.378;2022-12-19T00:14:51;33.58;;;16.20;;
12762;SDS011;6445;52.490;13.378;2022-12-19T00:17:16;36.95;;;17.77;;
12762;SDS011;6445;52.490;13.378;2022-12-19T00:19:41;40.70;;;18.00;;
12762;SDS011;6445;52.490;13.378;2022-12-19T00:22:07;38.30;;;16.85;;
12762;SDS011;6445;52.490;13.378;2022-12-19T00:24:32;33.63;;;16.30;;
12762;SDS011;6445;52.490;13.378;2022-12-19T00:26:57;33.80;;;17.48;;
12762;SDS011;6445;52.490;13.378;2022-12-19T00:29:22;35.35;;;16.67;;
12762;SDS011;6445;52.490;13.378;2022-12-19T00:31:48;33.35;;;16.02;;
12762;SDS011;6445;52.490;13.378;2022-12-19T00:34:13;33.40;;;16.10;;
12762;SDS011;6445;52.490;13.378;2022-12-19T00:36:38;29.70;;;15.55;;
12762;SDS011;6445;52.490;13.378;2022-12-19T00:39:04;37.95;;;17.55;;
12762;SDS011;6445;52.490;13.378;2022-12-19T00:41:30;33.92;;;16.25;;
12762;SDS011;6445;52.490;13.378;2022-12-19T00:43:58;36.67;;;17.13;;
12762;SDS011;6445;52.490;13.378;2022-12-19T00:46:25;36.78;;;17.00;;
12762;SDS011;6445;52.490;13.378;2022-12-19T00:48:51;33.53;;;15.57;;
12762;SDS011;6445;52.490;13.378;2022-12-19T00:51:27;34.30;;;15.93;;
12762;SDS011;6445;52.490;13.378;2022-12-19T00:53:55;32.00;;;15.52;;
12762;SDS011;6445;52.490;13.378;2022-12-19T00:56:22;35.22;;;15.27;;
12762;SDS011;6445;52.490;13.378;2022-12-19T00:58:49;36.13;;;16.30;;
12762;SDS011;6445;52.490;13.378;2022-12-19T01:01:15;32.55;;;15.13;;
12762;SDS011;6445;52.490;13.378;2022-12-19T01:03:42;32.85;;;16.00;;
12762;SDS011;6445;52.490;13.378;2022-12-19T01:06:08;33.67;;;16.13;;
12762;SDS011;6445;52.490;13.378;2022-12-19T01:08:34;35.95;;;16.48;;
12762;SDS011;6445;52.490;13.378;2022-12-19T01:10:59;33.40;;;15.73;;
12762;SDS011;6445;52.490;13.378;2022-12-19T01:13:25;30.27;;;15.18;;
12762;SDS011;6445;52.490;13.378;2022-12-19T01:15:52;31.83;;;16.13;;
12762;SDS011;6445;52.490;13.378;2022-12-19T01:18:18;33.15;;;15.68;;
12762;SDS011;6445;52.490;13.378;2022-12-19T01:20:43;35.65;;;15.80;;
12762;SDS011;6445;52.490;13.378;2022-12-19T01:23:11;29.67;;;15.23;;
12762;SDS011;6445;52.490;13.378;2022-12-19T01:25:38;34.17;;;15.63;;
12762;SDS011;6445;52.490;13.378;2022-12-19T01:28:04;30.52;;;14.52;;
12762;SDS011;6445;52.490;13.378;2022-12-19T01:30:31;31.88;;;14.57;;
12762;SDS011;6445;52.490;13.378;2022-12-19T01:32:56;28.33;;;14.73;;
12762;SDS011;6445;52.490;13.378;2022-12-19T01:35:23;32.47;;;14.50;;
12762;SDS011;6445;52.490;13.378;2022-12-19T01:37:49;31.75;;;14.90;;
12762;SDS011;6445;52.490;13.378;2022-12-19T01:40:15;28.55;;;14.45;;
12762;SDS011;6445;52.490;13.378;2022-12-19T01:42:41;30.63;;;14.32;;
12762;SDS011;6445;52.490;13.378;2022-12-19T01:47:32;33.67;;;15.68;;
12762;SDS011;6445;52.490;13.378;2022-12-19T01:50:01;31.85;;;14.90;;
12762;SDS011;6445;52.490;13.378;2022-12-19T01:52:27;30.23;;;14.60;;
12762;SDS011;6445;52.490;13.378;2022-12-19T01:54:53;30.90;;;15.30;;
12762;SDS011;6445;52.490;13.378;2022-12-19T01:57:19;30.25;;;14.98;;
12762;SDS011;6445;52.490;13.378;2022-12-19T01:59:47;31.05;;;15.45;;
12762;SDS011;6445;52.490;13.378;2022-12-19T02:02:18;30.83;;;14.80;;
12762;SDS011;6445;52.490;13.378;2022-12-19T02:04:48;29.25;;;14.50;;
12762;SDS011;6445;52.490;13.378;2022-12-19T02:07:13;30.35;;;14.75;;
12762;SDS011;6445;52.490;13.378;2022-12-19T02:09:43;28.95;;;15.18;;
12762;SDS011;6445;52.490;13.378;2022-12-19T02:12:10;28.42;;;14.35;;
12762;SDS011;6445;52.490;13.378;2022-12-19T02:14:36;31.35;;;15.70;;
12762;SDS011;6445;52.490;13.378;2022-12-19T02:17:07;27.55;;;14.75;;
12762;SDS011;6445;52.490;13.378;2022-12-19T02:19:50;29.85;;;14.52;;
12762;SDS011;6445;52.490;13.378;2022-12-19T02:22:39;34.35;;;15.40;;
12762;SDS011;6445;52.490;13.378;2022-12-19T02:25:14;29.90;;;14.10;;
12762;SDS011;6445;52.490;13.378;2022-12-19T02:31:16;28.27;;;14.93;;
12762;SDS011;6445;52.490;13.378;2022-12-19T02:37:11;30.13;;;15.30;;
12762;SDS011;6445;52.490;13.378;2022-12-19T02:39:49;32.45;;;15.05;;
12762;SDS011;6445;52.490;13.378;2022-12-19T02:42:23;30.92;;;14.75;;
12762;SDS011;6445;52.490;13.378;2022-12-19T02:44:54;26.60;;;14.55;;
12762;SDS011;6445;52.490;13.378;2022-12-19T02:47:22;34.08;;;15.80;;
12762;SDS011;6445;52.490;13.378;2022-12-19T02:49:48;31.17;;;15.10;;
12762;SDS011;6445;52.490;13.378;2022-12-19T02:54:45;28.00;;;15.00;;
12762;SDS011;6445;52.490;13.378;2022-12-19T03:00:04;32.25;;;15.48;;
12762;SDS011;6445;52.490;13.378;2022-12-19T03:02:34;30.73;;;15.48;;
12762;SDS011;6445;52.490;13.378;2022-12-19T03:05:29;31.02;;;15.18;;
12762;SDS011;6445;52.490;13.378;2022-12-19T03:08:07;35.65;;;17.67;;
12762;SDS011;6445;52.490;13.378;2022-12-19T03:10:37;30.88;;;15.68;;
12762;SDS011;6445;52.490;13.378;2022-12-19T03:13:08;35.88;;;16.92;;
12762;SDS011;6445;52.490;13.378;2022-12-19T03:15:44;34.60;;;16.27;;
12762;SDS011;6445;52.490;13.378;2022-12-19T03:18:10;33.15;;;15.63;;
12762;SDS011;6445;52.490;13.378;2022-12-19T03:23:34;35.58;;;15.48;;
12762;SDS011;6445;52.490;13.378;2022-12-19T03:26:03;31.80;;;16.35;;
12762;SDS011;6445;52.490;13.378;2022-12-19T03:28:37;37.50;;;16.70;;
12762;SDS011;6445;52.490;13.378;2022-12-19T03:31:07;32.60;;;15.82;;
12762;SDS011;6445;52.490;13.378;2022-12-19T03:33:35;28.73;;;15.20;;
12762;SDS011;6445;52.490;13.378;2022-12-19T03:36:05;31.88;;;15.70;;
12762;SDS011;6445;52.490;13.378;2022-12-19T03:38:34;32.30;;;15.98;;
12762;SDS011;6445;52.490;13.378;2022-12-19T03:41:01;33.35;;;16.02;;
12762;SDS011;6445;52.490;13.378;2022-12-19T03:43:29;33.63;;;15.75;;
12762;SDS011;6445;52.490;13.378;2022-12-19T03:46:14;36.08;;;16.85;;
12762;SDS011;6445;52.490;13.378;2022-12-19T03:48:46;37.17;;;17.70;;
12762;SDS011;6445;52.490;13.378;2022-12-19T03:51:27;35.53;;;17.58;;
12762;SDS011;6445;52.490;13.378;2022-12-19T03:54:00;32.72;;;17.42;;
12762;SDS011;6445;52.490;13.378;2022-12-19T03:59:15;37.65;;;17.77;;
12762;SDS011;6445;52.490;13.378;2022-12-19T04:01:45;32.13;;;16.05;;
12762;SDS011;6445;52.490;13.378;2022-12-19T04:04:12;32.30;;;16.90;;
12762;SDS011;6445;52.490;13.378;2022-12-19T04:06:38;32.63;;;17.15;;
12762;SDS011;6445;52.490;13.378;2022-12-19T04:09:04;38.35;;;17.75;;
12762;SDS011;6445;52.490;13.378;2022-12-19T04:11:33;33.85;;;17.23;;
12762;SDS011;6445;52.490;13.378;2022-12-19T04:14:03;34.08;;;16.73;;
12762;SDS011;6445;52.490;13.378;2022-12-19T04:16:44;33.50;;;17.55;;
12762;SDS011;6445;52.490;13.378;2022-12-19T04:22:20;42.47;;;17.50;;
12762;SDS011;6445;52.490;13.378;2022-12-19T04:24:50;35.17;;;17.95;;
12762;SDS011;6445;52.490;13.378;2022-12-19T04:27:18;40.95;;;18.27;;
12762;SDS011;6445;52.490;13.378;2022-12-19T04:29:45;32.78;;;17.40;;
12762;SDS011;6445;52.490;13.378;2022-12-19T04:32:12;38.35;;;18.40;;
12762;SDS011;6445;52.490;13.378;2022-12-19T04:34:38;35.28;;;18.10;;
12762;SDS011;6445;52.490;13.378;2022-12-19T04:37:04;38.47;;;18.05;;
12762;SDS011;6445;52.490;13.378;2022-12-19T04:39:29;35.20;;;17.65;;
12762;SDS011;6445;52.490;13.378;2022-12-19T04:41:55;35.58;;;17.35;;
12762;SDS011;6445;52.490;13.378;2022-12-19T04:44:20;37.45;;;18.73;;
12762;SDS011;6445;52.490;13.378;2022-12-19T04:46:45;38.13;;;17.35;;
12762;SDS011;6445;52.490;13.378;2022-12-19T04:49:10;39.72;;;17.73;;
12762;SDS011;6445;52.490;13.378;2022-12-19T04:51:36;35.45;;;17.88;;
12762;SDS011;6445;52.490;13.378;2022-12-19T04:54:01;37.83;;;17.77;;
12762;SDS011;6445;52.490;13.378;2022-12-19T04:56:26;35.75;;;18.10;;
12762;SDS011;6445;52.490;13.378;2022-12-19T04:58:55;34.28;;;17.88;;
12762;SDS011;6445;52.490;13.378;2022-12-19T05:01:22;35.40;;;17.40;;
12762;SDS011;6445;52.490;13.378;2022-12-19T05:03:47;35.55;;;17.15;;
12762;SDS011;6445;52.490;13.378;2022-12-19T05:06:12;39.28;;;18.80;;
12762;SDS011;6445;52.490;13.378;2022-12-19T05:08:39;38.78;;;18.05;;
12762;SDS011;6445;52.490;13.378;2022-12-19T05:11:07;38.15;;;17.45;;
12762;SDS011;6445;52.490;13.378;2022-12-19T05:13:33;44.10;;;19.67;;
12762;SDS011;6445;52.490;13.378;2022-12-19T05:15:59;38.58;;;18.75;;
12762;SDS011;6445;52.490;13.378;2022-12-19T05:18:26;34.03;;;17.52;;
12762;SDS011;6445;52.490;13.378;2022-12-19T05:20:52;35.55;;;17.60;;
12762;SDS011;6445;52.490;13.378;2022-12-19T05:23:18;33.75;;;17.52;;
12762;SDS011;6445;52.490;13.378;2022-12-19T05:25:43;34.85;;;17.58;;
12762;SDS011;6445;52.490;13.378;2022-12-19T05:28:08;38.60;;;19.38;;
12762;SDS011;6445;52.490;13.378;2022-12-19T05:30:34;37.08;;;17.98;;
12762;SDS011;6445;52.490;13.378;2022-12-19T05:32:59;37.05;;;18.42;;
12762;SDS011;6445;52.490;13.378;2022-12-19T05:35:25;37.50;;;18.40;;
12762;SDS011;6445;52.490;13.378;2022-12-19T05:37:51;36.75;;;18.90;;
12762;SDS011;6445;52.490;13.378;2022-12-19T05:40:16;34.58;;;17.52;;
12762;SDS011;6445;52.490;13.378;2022-12-19T05:42:41;37.85;;;18.35;;
12762;SDS011;6445;52.490;13.378;2022-12-19T05:45:06;36.30;;;18.85;;
12762;SDS011;6445;52.490;13.378;2022-12-19T05:47:32;37.72;;;18.20;;
12762;SDS011;6445;52.490;13.378;2022-12-19T05:49:58;37.85;;;18.25;;
12762;SDS011;6445;52.490;13.378;2022-12-19T05:52:23;39.63;;;17.98;;
12762;SDS011;6445;52.490;13.378;2022-12-19T05:54:48;33.22;;;17.00;;
12762;SDS011;6445;52.490;13.378;2022-12-19T05:57:14;35.28;;;17.98;;
12762;SDS011;6445;52.490;13.378;2022-12-19T05:59:39;37.60;;;18.02;;
12762;SDS011;6445;52.490;13.378;2022-12-19T06:02:04;36.05;;;17.42;;
12762;SDS011;6445;52.490;13.378;2022-12-19T06:04:30;38.92;;;17.98;;
12762;SDS011;6445;52.490;13.378;2022-12-19T06:06:55;36.55;;;17.95;;
12762;SDS011;6445;52.490;13.378;2022-12-19T06:09:20;36.33;;;18.13;;
12762;SDS011;6445;52.490;13.378;2022-12-19T06:11:45;41.78;;;17.83;;
12762;SDS011;6445;52.490;13.378;2022-12-19T06:14:11;42.05;;;18.75;;
12762;SDS011;6445;52.490;13.378;2022-12-19T06:16:36;34.35;;;17.50;;
12762;SDS011;6445;52.490;13.378;2022-12-19T06:19:01;39.47;;;17.90;;
12762;SDS011;6445;52.490;13.378;2022-12-19T06:21:27;35.20;;;16.67;;
12762;SDS011;6445;52.490;13.378;2022-12-19T06:23:53;36.70;;;17.45;;
12762;SDS011;6445;52.490;13.378;2022-12-19T06:26:18;33.58;;;17.25;;
12762;SDS011;6445;52.490;13.378;2022-12-19T06:28:45;40.58;;;18.52;;
12762;SDS011;6445;52.490;13.378;2022-12-19T06:31:10;40.50;;;17.95;;
12762;SDS011;6445;52.490;13.378;2022-12-19T06:33:36;36.85;;;18.00;;
12762;SDS011;6445;52.490;13.378;2022-12-19T06:38:31;38.83;;;18.30;;
12762;SDS011;6445;52.490;13.378;2022-12-19T06:40:57;34.83;;;17.77;;
12762;SDS011;6445;52.490;13.378;2022-12-19T06:43:42;42.28;;;17.67;;
12762;SDS011;6445;52.490;13.378;2022-12-19T06:46:07;32.67;;;16.95;;
12762;SDS011;6445;52.490;13.378;2022-12-19T06:48:33;34.40;;;17.08;;
12762;SDS011;6445;52.490;13.378;2022-12-19T06:50:58;37.70;;;17.45;;
12762;SDS011;6445;52.490;13.378;2022-12-19T06:53:24;32.75;;;17.52;;
12762;SDS011;6445;52.490;13.378;2022-12-19T06:55:49;35.80;;;17.80;;
12762;SDS011;6445;52.490;13.378;2022-12-19T06:58:17;35.38;;;17.98;;
12762;SDS011;6445;52.490;13.378;2022-12-19T07:00:42;33.88;;;16.75;;
12762;SDS011;6445;52.490;13.378;2022-12-19T07:03:08;36.25;;;17.63;;
12762;SDS011;6445;52.490;13.378;2022-12-19T07:05:36;36.30;;;17.20;;
12762;SDS011;6445;52.490;13.378;2022-12-19T07:08:02;35.13;;;17.02;;
12762;SDS011;6445;52.490;13.378;2022-12-19T07:10:28;33.28;;;17.15;;
12762;SDS011;6445;52.490;13.378;2022-12-19T07:12:53;32.33;;;16.92;;
12762;SDS011;6445;52.490;13.378;2022-12-19T07:15:18;30.75;;;15.85;;
12762;SDS011;6445;52.490;13.378;2022-12-19T07:17:43;31.90;;;16.33;;
12762;SDS011;6445;52.490;13.378;2022-12-19T07:20:09;28.15;;;14.93;;
12762;SDS011;6445;52.490;13.378;2022-12-19T07:22:35;32.13;;;16.52;;
12762;SDS011;6445;52.490;13.378;2022-12-19T07:25:01;33.08;;;17.05;;
12762;SDS011;6445;52.490;13.378;2022-12-19T07:27:28;32.15;;;16.08;;
12762;SDS011;6445;52.490;13.378;2022-12-19T07:29:53;32.45;;;16.33;;
12762;SDS011;6445;52.490;13.378;2022-12-19T07:32:19;32.15;;;16.80;;
12762;SDS011;6445;52.490;13.378;2022-12-19T07:34:45;31.63;;;15.48;;
12762;SDS011;6445;52.490;13.378;2022-12-19T07:37:10;32.40;;;15.82;;
12762;SDS011;6445;52.490;13.378;2022-12-19T07:39:36;29.92;;;15.20;;
12762;SDS011;6445;52.490;13.378;2022-12-19T07:42:01;31.00;;;16.45;;
12762;SDS011;6445;52.490;13.378;2022-12-19T07:44:26;29.50;;;15.27;;
12762;SDS011;6445;52.490;13.378;2022-12-19T07:46:51;33.05;;;15.25;;
12762;SDS011;6445;52.490;13.378;2022-12-19T07:49:17;29.10;;;14.63;;
12762;SDS011;6445;52.490;13.378;2022-12-19T07:51:42;33.42;;;16.05;;
12762;SDS011;6445;52.490;13.378;2022-12-19T07:54:07;36.25;;;16.45;;
12762;SDS011;6445;52.490;13.378;2022-12-19T07:56:32;31.02;;;15.23;;
12762;SDS011;6445;52.490;13.378;2022-12-19T07:58:58;32.15;;;15.20;;
12762;SDS011;6445;52.490;13.378;2022-12-19T08:01:23;29.80;;;14.65;;
12762;SDS011;6445;52.490;13.378;2022-12-19T08:03:48;27.98;;;14.43;;
12762;SDS011;6445;52.490;13.378;2022-12-19T08:06:13;30.63;;;14.82;;
12762;SDS011;6445;52.490;13.378;2022-12-19T08:08:39;32.33;;;14.73;;
12762;SDS011;6445;52.490;13.378;2022-12-19T08:11:11;32.60;;;14.95;;
12762;SDS011;6445;52.490;13.378;2022-12-19T08:13:38;32.75;;;15.77;;
12762;SDS011;6445;52.490;13.378;2022-12-19T08:16:04;26.95;;;13.57;;
12762;SDS011;6445;52.490;13.378;2022-12-19T08:18:29;31.70;;;16.02;;
12762;SDS011;6445;52.490;13.378;2022-12-19T08:20:55;34.22;;;15.57;;
12762;SDS011;6445;52.490;13.378;2022-12-19T08:23:20;28.77;;;14.30;;
12762;SDS011;6445;52.490;13.378;2022-12-19T08:25:45;30.42;;;14.90;;
12762;SDS011;6445;52.490;13.378;2022-12-19T08:28:11;30.38;;;14.45;;
12762;SDS011;6445;52.490;13.378;2022-12-19T08:30:39;34.45;;;15.73;;
12762;SDS011;6445;52.490;13.378;2022-12-19T08:33:05;27.95;;;14.57;;
12762;SDS011;6445;52.490;13.378;2022-12-19T08:35:31;30.80;;;14.85;;
12762;SDS011;6445;52.490;13.378;2022-12-19T08:37:56;30.67;;;14.40;;
12762;SDS011;6445;52.490;13.378;2022-12-19T08:40:22;29.17;;;15.43;;
12762;SDS011;6445;52.490;13.378;2022-12-19T08:42:47;31.80;;;15.40;;
12762;SDS011;6445;52.490;13.378;2022-12-19T08:45:14;26.75;;;14.15;;
12762;SDS011;6445;52.490;13.378;2022-12-19T08:47:40;33.40;;;14.60;;
12762;SDS011;6445;52.490;13.378;2022-12-19T08:50:07;28.23;;;14.52;;
12762;SDS011;6445;52.490;13.378;2022-12-19T08:52:32;31.85;;;14.85;;
12762;SDS011;6445;52.490;13.378;2022-12-19T08:54:58;30.90;;;15.73;;
12762;SDS011;6445;52.490;13.378;2022-12-19T08:57:23;30.17;;;14.65;;
12762;SDS011;6445;52.490;13.378;2022-12-19T08:59:48;27.70;;;14.23;;
12762;SDS011;6445;52.490;13.378;2022-12-19T09:02:14;28.90;;;14.35;;
12762;SDS011;6445;52.490;13.378;2022-12-19T09:04:40;31.30;;;14.43;;
12762;SDS011;6445;52.490;13.378;2022-12-19T09:07:05;28.45;;;14.80;;
12762;SDS011;6445;52.490;13.378;2022-12-19T09:09:30;28.48;;;14.63;;
12762;SDS011;6445;52.490;13.378;2022-12-19T09:11:55;28.02;;;14.70;;
12762;SDS011;6445;52.490;13.378;2022-12-19T09:14:20;31.05;;;14.57;;
12762;SDS011;6445;52.490;13.378;2022-12-19T09:16:46;27.17;;;14.80;;
12762;SDS011;6445;52.490;13.378;2022-12-19T09:19:11;29.45;;;14.77;;
12762;SDS011;6445;52.490;13.378;2022-12-19T09:21:39;29.20;;;14.07;;
12762;SDS011;6445;52.490;13.378;2022-12-19T09:24:04;30.73;;;15.07;;
12762;SDS011;6445;52.490;13.378;2022-12-19T09:26:30;30.25;;;15.07;;
12762;SDS011;6445;52.490;13.378;2022-12-19T09:28:55;28.40;;;14.77;;
12762;SDS011;6445;52.490;13.378;2022-12-19T09:31:22;32.30;;;15.40;;
12762;SDS011;6445;52.490;13.378;2022-12-19T09:33:48;29.77;;;15.45;;
12762;SDS011;6445;52.490;13.378;2022-12-19T09:36:15;30.40;;;14.40;;
12762;SDS011;6445;52.490;13.378;2022-12-19T09:38:42;32.47;;;15.70;;
12762;SDS011;6445;52.490;13.378;2022-12-19T09:44:23;30.80;;;13.82;;
12762;SDS011;6445;52.490;13.378;2022-12-19T09:47:03;28.30;;;15.00;;
12762;SDS011;6445;52.490;13.378;2022-12-19T09:49:37;30.65;;;15.23;;
12762;SDS011;6445;52.490;13.378;2022-12-19T09:52:09;29.48;;;14.52;;
12762;SDS011;6445;52.490;13.378;2022-12-19T09:54:47;30.02;;;15.07;;
12762;SDS011;6445;52.490;13.378;2022-12-19T09:57:18;32.67;;;15.02;;
12762;SDS011;6445;52.490;13.378;2022-12-19T09:59:50;31.40;;;14.95;;
12762;SDS011;6445;52.490;13.378;2022-12-19T10:02:30;31.02;;;15.10;;
12762;SDS011;6445;52.490;13.378;2022-12-19T10:07:57;31.52;;;15.45;;
12762;SDS011;6445;52.490;13.378;2022-12-19T10:10:27;27.50;;;14.43;;
12762;SDS011;6445;52.490;13.378;2022-12-19T10:13:11;26.45;;;13.55;;
12762;SDS011;6445;52.490;13.378;2022-12-19T10:15:57;26.67;;;13.85;;
12762;SDS011;6445;52.490;13.378;2022-12-19T10:18:41;28.05;;;14.73;;
12762;SDS011;6445;52.490;13.378;2022-12-19T10:29:33;28.33;;;13.70;;
12762;SDS011;6445;52.490;13.378;2022-12-19T10:32:17;30.05;;;14.98;;
12762;SDS011;6445;52.490;13.378;2022-12-19T10:34:48;26.50;;;13.85;;
12762;SDS011;6445;52.490;13.378;2022-12-19T10:37:17;26.58;;;13.85;;
12762;SDS011;6445;52.490;13.378;2022-12-19T10:39:53;27.80;;;14.30;;
12762;SDS011;6445;52.490;13.378;2022-12-19T10:42:45;24.80;;;13.20;;
12762;SDS011;6445;52.490;13.378;2022-12-19T10:45:17;25.08;;;13.45;;
12762;SDS011;6445;52.490;13.378;2022-12-19T10:47:48;25.05;;;13.88;;
12762;SDS011;6445;52.490;13.378;2022-12-19T10:50:20;27.92;;;14.32;;
12762;SDS011;6445;52.490;13.378;2022-12-19T10:52:50;25.42;;;13.13;;
12762;SDS011;6445;52.490;13.378;2022-12-19T10:55:21;27.42;;;14.23;;
12762;SDS011;6445;52.490;13.378;2022-12-19T10:57:56;26.58;;;14.15;;
12762;SDS011;6445;52.490;13.378;2022-12-19T11:00:22;26.55;;;14.43;;
12762;SDS011;6445;52.490;13.378;2022-12-19T11:02:48;28.77;;;14.48;;
12762;SDS011;6445;52.490;13.378;2022-12-19T11:05:28;30.50;;;14.00;;
12762;SDS011;6445;52.490;13.378;2022-12-19T11:13:20;28.45;;;13.57;;
12762;SDS011;6445;52.490;13.378;2022-12-19T11:16:01;29.38;;;13.00;;
12762;SDS011;6445;52.490;13.378;2022-12-19T11:18:35;22.98;;;13.27;;
12762;SDS011;6445;52.490;13.378;2022-12-19T11:21:15;25.42;;;13.73;;
12762;SDS011;6445;52.490;13.378;2022-12-19T11:26:27;28.10;;;14.43;;
12762;SDS011;6445;52.490;13.378;2022-12-19T11:28:56;28.13;;;14.65;;
12762;SDS011;6445;52.490;13.378;2022-12-19T11:31:25;27.67;;;14.77;;
12762;SDS011;6445;52.490;13.378;2022-12-19T11:33:54;26.17;;;14.25;;
12762;SDS011;6445;52.490;13.378;2022-12-19T11:36:29;26.88;;;13.95;;
12762;SDS011;6445;52.490;13.378;2022-12-19T11:39:01;28.40;;;14.52;;
12762;SDS011;6445;52.490;13.378;2022-12-19T11:41:30;26.23;;;14.05;;
12762;SDS011;6445;52.490;13.378;2022-12-19T11:44:05;29.02;;;14.43;;
12762;SDS011;6445;52.490;13.378;2022-12-19T11:46:39;27.73;;;14.25;;
12762;SDS011;6445;52.490;13.378;2022-12-19T11:49:34;31.02;;;13.85;;
12762;SDS011;6445;52.490;13.378;2022-12-19T11:52:20;25.90;;;14.07;;
12762;SDS011;6445;52.490;13.378;2022-12-19T11:58:00;26.67;;;14.18;;
12762;SDS011;6445;52.490;13.378;2022-12-19T12:00:25;28.85;;;15.10;;
12762;SDS011;6445;52.490;13.378;2022-12-19T12:03:08;24.50;;;14.18;;
12762;SDS011;6445;52.490;13.378;2022-12-19T12:05:47;27.30;;;14.32;;
12762;SDS011;6445;52.490;13.378;2022-12-19T12:08:20;29.02;;;15.38;;
12762;SDS011;6445;52.490;13.378;2022-12-19T12:11:01;28.48;;;14.80;;
12762;SDS011;6445;52.490;13.378;2022-12-19T12:13:43;27.63;;;14.10;;
12762;SDS011;6445;52.490;13.378;2022-12-19T12:16:22;27.63;;;14.80;;
12762;SDS011;6445;52.490;13.378;2022-12-19T12:24:40;27.83;;;14.32;;
12762;SDS011;6445;52.490;13.378;2022-12-19T12:27:40;28.80;;;15.02;;
12762;SDS011;6445;52.490;13.378;2022-12-19T12:30:19;30.60;;;14.65;;
12762;SDS011;6445;52.490;13.378;2022-12-19T12:32:51;31.67;;;16.05;;
12762;SDS011;6445;52.490;13.378;2022-12-19T12:35:35;28.27;;;14.77;;
12762;SDS011;6445;52.490;13.378;2022-12-19T12:44:05;29.77;;;14.73;;
12762;SDS011;6445;52.490;13.378;2022-12-19T12:46:39;26.90;;;14.60;;
12762;SDS011;6445;52.490;13.378;2022-12-19T12:51:58;31.98;;;15.32;;
12762;SDS011;6445;52.490;13.378;2022-12-19T12:54:28;30.02;;;14.63;;
12762;SDS011;6445;52.490;13.378;2022-12-19T12:57:02;33.25;;;15.43;;
12762;SDS011;6445;52.490;13.378;2022-12-19T12:59:27;31.17;;;14.90;;
12762;SDS011;6445;52.490;13.378;2022-12-19T13:01:54;29.10;;;14.73;;
12762;SDS011;6445;52.490;13.378;2022-12-19T13:04:31;35.47;;;16.00;;
12762;SDS011;6445;52.490;13.378;2022-12-19T13:07:13;31.33;;;16.90;;
12762;SDS011;6445;52.490;13.378;2022-12-19T13:09:44;32.00;;;16.20;;
12762;SDS011;6445;52.490;13.378;2022-12-19T13:12:20;31.75;;;15.70;;
12762;SDS011;6445;52.490;13.378;2022-12-19T13:15:17;32.67;;;16.00;;
12762;SDS011;6445;52.490;13.378;2022-12-19T13:22:38;32.17;;;17.33;;
12762;SDS011;6445;52.490;13.378;2022-12-19T13:25:51;33.80;;;16.35;;
12762;SDS011;6445;52.490;13.378;2022-12-19T13:30:25;35.33;;;17.45;;
12762;SDS011;6445;52.490;13.378;2022-12-19T13:38:00;36.13;;;16.70;;
12762;SDS011;6445;52.490;13.378;2022-12-19T13:40:49;35.50;;;17.15;;
12762;SDS011;6445;52.490;13.378;2022-12-19T13:43:26;36.20;;;17.60;;
12762;SDS011;6445;52.490;13.378;2022-12-19T13:46:19;34.35;;;17.67;;
12762;SDS011;6445;52.490;13.378;2022-12-19T13:49:03;36.83;;;17.70;;
12762;SDS011;6445;52.490;13.378;2022-12-19T13:51:44;34.65;;;17.73;;
12762;SDS011;6445;52.490;13.378;2022-12-19T13:54:18;39.80;;;18.67;;
12762;SDS011;6445;52.490;13.378;2022-12-19T13:56:56;35.33;;;18.25;;
12762;SDS011;6445;52.490;13.378;2022-12-19T13:59:22;39.10;;;20.05;;
12762;SDS011;6445;52.490;13.378;2022-12-19T14:01:50;37.08;;;18.10;;
12762;SDS011;6445;52.490;13.378;2022-12-19T14:04:24;39.05;;;19.15;;
12762;SDS011;6445;52.490;13.378;2022-12-19T14:06:54;38.85;;;19.95;;
12762;SDS011;6445;52.490;13.378;2022-12-19T14:09:33;41.42;;;20.33;;
12762;SDS011;6445;52.490;13.378;2022-12-19T14:12:02;40.58;;;19.08;;
12762;SDS011;6445;52.490;13.378;2022-12-19T14:14:30;37.60;;;19.35;;
12762;SDS011;6445;52.490;13.378;2022-12-19T14:17:15;40.50;;;19.45;;
12762;SDS011;6445;52.490;13.378;2022-12-19T14:19:45;40.65;;;19.83;;
12762;SDS011;6445;52.490;13.378;2022-12-19T14:25:02;43.35;;;21.30;;
12762;SDS011;6445;52.490;13.378;2022-12-19T14:27:36;45.03;;;21.13;;
12762;SDS011;6445;52.490;13.378;2022-12-19T14:30:06;43.53;;;20.92;;
12762;SDS011;6445;52.490;13.378;2022-12-19T14:32:39;44.15;;;21.35;;
12762;SDS011;6445;52.490;13.378;2022-12-19T14:35:06;47.55;;;21.42;;
12762;SDS011;6445;52.490;13.378;2022-12-19T14:37:37;45.90;;;21.13;;
12762;SDS011;6445;52.490;13.378;2022-12-19T14:40:13;43.40;;;20.92;;
12762;SDS011;6445;52.490;13.378;2022-12-19T14:42:41;41.47;;;21.75;;
12762;SDS011;6445;52.490;13.378;2022-12-19T14:45:44;45.40;;;21.80;;
12762;SDS011;6445;52.490;13.378;2022-12-19T14:48:25;46.78;;;22.70;;
12762;SDS011;6445;52.490;13.378;2022-12-19T14:54:13;44.85;;;21.58;;
12762;SDS011;6445;52.490;13.378;2022-12-19T14:56:48;46.60;;;21.98;;
12762;SDS011;6445;52.490;13.378;2022-12-19T15:04:38;45.03;;;22.25;;
12762;SDS011;6445;52.490;13.378;2022-12-19T15:07:07;50.92;;;22.95;;
12762;SDS011;6445;52.490;13.378;2022-12-19T15:09:47;49.00;;;22.95;;
12762;SDS011;6445;52.490;13.378;2022-12-19T15:12:15;54.58;;;23.05;;
12762;SDS011;6445;52.490;13.378;2022-12-19T15:15:17;46.25;;;22.13;;
12762;SDS011;6445;52.490;13.378;2022-12-19T15:17:46;49.63;;;23.58;;
12762;SDS011;6445;52.490;13.378;2022-12-19T15:20:18;55.10;;;23.77;;
12762;SDS011;6445;52.490;13.378;2022-12-19T15:22:44;49.65;;;22.80;;
12762;SDS011;6445;52.490;13.378;2022-12-19T15:25:16;53.72;;;24.13;;
12762;SDS011;6445;52.490;13.378;2022-12-19T15:27:42;52.25;;;23.55;;
12762;SDS011;6445;52.490;13.378;2022-12-19T15:30:16;53.38;;;23.27;;
12762;SDS011;6445;52.490;13.378;2022-12-19T15:32:43;51.67;;;24.15;;
12762;SDS011;6445;52.490;13.378;2022-12-19T15:35:13;55.33;;;24.38;;
12762;SDS011;6445;52.490;13.378;2022-12-19T15:37:39;52.30;;;23.52;;
12762;SDS011;6445;52.490;13.378;2022-12-19T15:40:04;54.17;;;23.92;;
12762;SDS011;6445;52.490;13.378;2022-12-19T15:42:30;56.20;;;24.50;;
12762;SDS011;6445;52.490;13.378;2022-12-19T15:44:56;51.20;;;24.80;;
12762;SDS011;6445;52.490;13.378;2022-12-19T15:47:31;52.42;;;23.35;;
12762;SDS011;6445;52.490;13.378;2022-12-19T15:49:58;52.45;;;24.15;;
12762;SDS011;6445;52.490;13.378;2022-12-19T15:52:27;48.30;;;24.20;;
12762;SDS011;6445;52.490;13.378;2022-12-19T15:54:53;51.42;;;24.27;;
12762;SDS011;6445;52.490;13.378;2022-12-19T15:57:31;50.85;;;23.52;;
12762;SDS011;6445;52.490;13.378;2022-12-19T15:59:59;53.35;;;23.90;;
12762;SDS011;6445;52.490;13.378;2022-12-19T16:02:27;54.70;;;24.35;;
12762;SDS011;6445;52.490;13.378;2022-12-19T16:04:53;53.22;;;24.10;;